Time;durP1;ratioP1;P1;durP2;ratioP2;P2;SDS_P1;SDS_P2;PMS_P1;PMS_P2;Temp;Humidity;BMP_temperature;BMP_pressure;BME280_temperature;BME280_humidity;BME280_pressure;Samples;Min_cycle;Max_cycle;Signal;HPM_P1;HPM_P2
2022/10/07 00:00:45;;;;;;;7.70;6.43;;;14.90;99.90;;;;;;5018009;28;20516;-87
2022/10/07 00:03:11;;;;;;;10.60;6.50;;;14.80;99.90;;;;;;5022155;28;20475;-86
2022/10/07 00:05:38;;;;;;;7.97;5.97;;;14.80;99.90;;;;;;5015998;28;20450;-87
2022/10/07 00:08:06;;;;;;;10.83;6.37;;;14.80;99.90;;;;;;5014649;28;20462;-87
2022/10/07 00:10:37;;;;;;;7.33;5.37;;;14.80;99.90;;;;;;5021403;28;20451;-88
2022/10/07 00:13:04;;;;;;;9.80;5.50;;;14.80;99.90;;;;;;5017457;28;20482;-87
2022/10/07 00:15:31;;;;;;;13.67;5.50;;;14.80;99.90;;;;;;5014957;28;20447;-87
2022/10/07 00:17:58;;;;;;;8.00;5.60;;;14.80;99.90;;;;;;5016104;28;20453;-86
2022/10/07 00:20:24;;;;;;;9.33;5.77;;;14.80;99.90;;;;;;5020418;28;20836;-87
2022/10/07 00:22:52;;;;;;;5.23;4.73;;;14.80;99.90;;;;;;5037693;28;20437;-87
2022/10/07 00:25:20;;;;;;;5.93;5.33;;;14.80;99.90;;;;;;5032204;28;20461;-87
2022/10/07 00:27:49;;;;;;;6.63;4.47;;;14.90;99.90;;;;;;5029747;28;20427;-88
2022/10/07 00:30:16;;;;;;;8.27;5.33;;;14.90;99.90;;;;;;5027903;28;20457;-87
2022/10/07 00:32:42;;;;;;;9.00;5.70;;;14.80;99.90;;;;;;5020416;28;20492;-87
2022/10/07 00:35:09;;;;;;;6.97;4.90;;;14.90;99.90;;;;;;5019638;28;20975;-88
2022/10/07 00:37:41;;;;;;;7.00;5.03;;;14.90;99.90;;;;;;5019487;28;20442;-87
2022/10/07 00:40:10;;;;;;;9.87;4.90;;;14.90;99.90;;;;;;5019804;28;20450;-87
2022/10/07 00:42:39;;;;;;;8.20;4.90;;;14.90;99.90;;;;;;5019707;28;20493;-87
2022/10/07 00:45:07;;;;;;;8.57;5.93;;;14.90;99.90;;;;;;5019333;28;20504;-87
2022/10/07 00:47:35;;;;;;;5.63;5.07;;;14.90;99.90;;;;;;5019084;28;20461;-87
2022/10/07 00:50:04;;;;;;;10.27;5.80;;;14.90;99.90;;;;;;5019292;28;20956;-87
2022/10/07 00:52:34;;;;;;;6.57;4.77;;;14.80;99.90;;;;;;5019479;28;20441;-87
2022/10/07 00:55:05;;;;;;;10.63;5.50;;;14.80;99.90;;;;;;5023199;28;20474;-87
2022/10/07 00:57:33;;;;;;;7.93;5.70;;;14.80;99.90;;;;;;5038483;28;20442;-87
2022/10/07 01:00:05;;;;;;;8.43;5.97;;;14.80;99.90;;;;;;5025556;28;20450;-87
2022/10/07 01:02:33;;;;;;;6.47;5.20;;;14.80;99.90;;;;;;5028128;28;20450;-87
2022/10/07 01:05:03;;;;;;;8.43;4.90;;;14.80;99.90;;;;;;5024330;28;20525;-87
2022/10/07 01:07:30;;;;;;;5.90;4.90;;;14.80;99.90;;;;;;5035712;28;20452;-86
2022/10/07 01:09:59;;;;;;;10.57;5.20;;;14.80;99.90;;;;;;5020979;28;20452;-86
2022/10/07 01:12:36;;;;;;;7.57;4.80;;;14.80;99.90;;;;;;5019750;28;20458;-86
2022/10/07 01:15:10;;;;;;;11.17;6.20;;;14.80;99.90;;;;;;5018751;28;20555;-87
2022/10/07 01:17:44;;;;;;;13.30;5.20;;;14.80;99.90;;;;;;5026082;28;20447;-88
2022/10/07 01:20:39;;;;;;;7.93;5.23;;;14.80;99.90;;;;;;5041855;28;20433;-86
2022/10/07 01:23:28;;;;;;;8.57;4.77;;;14.80;99.90;;;;;;5019338;28;20469;-86
2022/10/07 01:26:33;;;;;;;7.20;5.43;;;14.80;99.90;;;;;;5019181;28;20446;-87
2022/10/07 01:29:04;;;;;;;7.73;4.50;;;14.80;99.90;;;;;;5021216;28;20446;-87
2022/10/07 01:31:36;;;;;;;7.50;4.90;;;14.80;99.90;;;;;;5031756;28;20446;-86
2022/10/07 01:34:04;;;;;;;6.27;4.43;;;14.80;99.90;;;;;;5036186;28;20478;-87
2022/10/07 01:36:35;;;;;;;5.67;4.60;;;14.80;99.90;;;;;;5029800;28;20458;-86
2022/10/07 01:39:08;;;;;;;12.40;5.50;;;14.80;99.90;;;;;;5018514;28;20449;-86
2022/10/07 01:41:37;;;;;;;7.10;4.90;;;14.80;99.90;;;;;;4999740;28;20817;-86
2022/10/07 01:44:08;;;;;;;9.27;5.00;;;14.80;99.90;;;;;;4997809;28;21219;-86
2022/10/07 01:46:36;;;;;;;9.97;5.13;;;14.80;99.90;;;;;;4998858;28;20447;-86
2022/10/07 01:49:04;;;;;;;6.60;5.30;;;14.80;99.90;;;;;;5002015;28;20455;-87
2022/10/07 01:51:34;;;;;;;9.47;5.03;;;14.80;99.90;;;;;;4998465;28;20490;-87
2022/10/07 01:54:11;;;;;;;13.13;5.70;;;14.80;99.90;;;;;;4997041;28;20996;-86
2022/10/07 01:56:52;;;;;;;5.77;4.77;;;14.80;99.90;;;;;;4996944;28;20425;-86
2022/10/07 01:59:41;;;;;;;8.53;4.97;;;14.80;99.90;;;;;;4997007;28;20532;-86
2022/10/07 02:02:18;;;;;;;8.13;4.57;;;14.90;99.90;;;;;;4996129;28;20948;-87
2022/10/07 02:04:57;;;;;;;7.47;4.30;;;14.90;99.90;;;;;;4996242;28;20478;-87
2022/10/07 02:07:34;;;;;;;6.50;4.80;;;14.80;99.90;;;;;;5004166;28;20464;-87
2022/10/07 02:10:10;;;;;;;11.47;4.87;;;14.80;99.90;;;;;;5013253;28;20447;-87
2022/10/07 02:12:42;;;;;;;10.50;5.20;;;14.80;99.90;;;;;;5008338;28;20506;-85
2022/10/07 02:15:14;;;;;;;8.23;5.13;;;14.70;99.90;;;;;;5010313;28;20515;-87
2022/10/07 02:17:46;;;;;;;8.57;5.00;;;14.70;99.90;;;;;;5016829;28;20420;-86
2022/10/07 02:20:14;;;;;;;9.93;4.70;;;14.80;99.90;;;;;;4996251;28;20470;-86
2022/10/07 02:22:44;;;;;;;8.13;5.33;;;14.70;99.90;;;;;;4995824;28;20451;-87
2022/10/07 02:25:13;;;;;;;8.40;5.50;;;14.80;99.90;;;;;;4995568;28;20447;-87
2022/10/07 02:27:41;;;;;;;8.43;5.37;;;14.70;99.90;;;;;;4995664;28;20456;-86
2022/10/07 02:30:13;;;;;;;6.20;4.47;;;14.70;99.90;;;;;;4997524;28;20921;-87
2022/10/07 02:32:43;;;;;;;5.93;4.43;;;14.70;99.90;;;;;;5003662;28;20439;-86
2022/10/07 02:35:16;;;;;;;8.27;4.70;;;14.70;99.90;;;;;;5002293;28;20486;-86
2022/10/07 02:37:46;;;;;;;10.30;5.17;;;14.70;99.90;;;;;;5011587;28;20451;-86
2022/10/07 02:40:13;;;;;;;7.37;4.90;;;14.70;99.90;;;;;;4996721;28;20447;-86
2022/10/07 02:42:47;;;;;;;8.97;4.90;;;14.70;99.90;;;;;;4995642;28;20454;-86
2022/10/07 02:45:19;;;;;;;8.10;6.57;;;14.70;99.90;;;;;;4995345;28;21010;-86
2022/10/07 02:47:49;;;;;;;11.83;4.37;;;14.70;99.90;;;;;;4997463;28;20456;-86
2022/10/07 02:50:25;;;;;;;7.77;4.23;;;14.70;99.90;;;;;;5009423;28;20447;-86
2022/10/07 02:52:55;;;;;;;7.13;5.20;;;14.70;99.90;;;;;;4997511;28;20451;-86
2022/10/07 02:55:25;;;;;;;6.80;4.87;;;14.70;99.90;;;;;;4995446;28;20574;-86
2022/10/07 02:57:56;;;;;;;7.63;5.27;;;14.70;99.90;;;;;;4995617;28;20980;-86
2022/10/07 03:00:25;;;;;;;8.93;4.63;;;14.70;99.90;;;;;;5013643;28;20439;-87
2022/10/07 03:02:54;;;;;;;10.40;5.37;;;14.70;99.90;;;;;;5001212;28;20451;-86
2022/10/07 03:05:23;;;;;;;8.97;5.33;;;14.70;99.90;;;;;;5000980;28;20448;-86
2022/10/07 03:07:53;;;;;;;5.93;4.83;;;14.70;99.90;;;;;;4995185;28;20559;-86
2022/10/07 03:10:20;;;;;;;7.33;4.50;;;14.70;99.90;;;;;;4994775;28;20456;-86
2022/10/07 03:12:47;;;;;;;7.33;5.43;;;14.70;99.90;;;;;;4994985;28;20565;-87
2022/10/07 03:15:14;;;;;;;9.60;5.10;;;14.70;99.90;;;;;;4998847;28;20538;-86
2022/10/07 03:17:42;;;;;;;7.77;5.50;;;14.70;99.90;;;;;;5015102;28;20462;-87
2022/10/07 03:20:10;;;;;;;5.93;4.40;;;14.70;99.90;;;;;;5001879;28;20462;-87
2022/10/07 03:22:37;;;;;;;10.57;5.00;;;14.70;99.90;;;;;;5004689;28;20546;-86
2022/10/07 03:25:04;;;;;;;6.37;4.80;;;14.70;99.90;;;;;;4995384;28;20463;-87
2022/10/07 03:27:31;;;;;;;9.47;6.13;;;14.70;99.90;;;;;;4994850;28;20534;-87
2022/10/07 03:29:58;;;;;;;11.37;5.20;;;14.70;99.90;;;;;;4994900;28;20969;-87
2022/10/07 03:32:26;;;;;;;8.60;5.00;;;14.70;99.90;;;;;;4996591;28;20826;-87
2022/10/07 03:34:54;;;;;;;10.10;5.60;;;14.70;99.90;;;;;;4998947;28;20482;-86
2022/10/07 03:37:21;;;;;;;9.60;5.13;;;14.80;99.90;;;;;;4995134;28;20447;-87
2022/10/07 03:39:48;;;;;;;10.03;5.43;;;14.70;99.90;;;;;;4994587;28;20479;-87
2022/10/07 03:42:14;;;;;;;9.33;4.80;;;14.70;99.90;;;;;;4994576;28;20443;-87
2022/10/07 03:44:42;;;;;;;6.90;5.07;;;14.70;99.90;;;;;;5012594;28;20469;-87
2022/10/07 03:47:09;;;;;;;10.93;5.50;;;14.70;99.90;;;;;;5002993;28;20564;-87
2022/10/07 03:49:36;;;;;;;10.37;5.40;;;14.70;99.90;;;;;;5001452;28;20791;-87
2022/10/07 03:52:05;;;;;;;8.63;5.37;;;14.70;99.90;;;;;;4994496;28;20451;-87
2022/10/07 03:54:33;;;;;;;8.70;5.40;;;14.70;99.90;;;;;;4998194;28;20494;-87
2022/10/07 03:57:00;;;;;;;8.40;5.40;;;14.60;99.90;;;;;;5009245;28;20448;-86
2022/10/07 03:59:27;;;;;;;10.80;6.00;;;14.60;99.90;;;;;;4997305;28;20467;-86
2022/10/07 04:01:54;;;;;;;8.17;4.93;;;14.60;99.90;;;;;;4997602;28;20455;-88
2022/10/07 04:04:26;;;;;;;7.33;5.00;;;14.60;99.90;;;;;;5014420;28;20490;-87
2022/10/07 04:06:53;;;;;;;6.77;4.67;;;14.60;99.90;;;;;;4995502;28;20970;-86
2022/10/07 04:09:21;;;;;;;8.97;5.03;;;14.60;99.90;;;;;;5009168;28;20448;-86
2022/10/07 04:11:48;;;;;;;9.07;5.50;;;14.60;99.90;;;;;;5010058;28;20447;-87
2022/10/07 04:14:15;;;;;;;6.70;4.90;;;14.60;99.90;;;;;;5008334;28;20542;-87
2022/10/07 04:16:42;;;;;;;6.80;4.40;;;14.60;99.90;;;;;;4994638;28;20439;-86
2022/10/07 04:19:09;;;;;;;6.87;5.07;;;14.60;99.90;;;;;;4993785;28;20936;-86
2022/10/07 04:21:35;;;;;;;9.50;5.80;;;14.60;99.90;;;;;;4995408;28;20490;-85
2022/10/07 04:24:02;;;;;;;10.60;5.67;;;14.60;99.90;;;;;;5002301;28;20468;-84
2022/10/07 04:26:30;;;;;;;9.53;5.20;;;14.60;99.90;;;;;;5017320;28;20432;-84
2022/10/07 04:28:58;;;;;;;6.30;4.83;;;14.60;99.90;;;;;;4999264;28;20443;-85
2022/10/07 04:31:25;;;;;;;5.93;5.03;;;14.60;99.90;;;;;;4994155;28;20453;-84
2022/10/07 04:33:52;;;;;;;8.70;5.43;;;14.60;99.90;;;;;;4993751;28;20483;-85
2022/10/07 04:36:19;;;;;;;9.13;5.40;;;14.60;99.90;;;;;;4993666;28;20546;-85
2022/10/07 04:38:49;;;;;;;7.90;5.57;;;14.60;99.90;;;;;;4994158;28;20524;-87
2022/10/07 04:41:16;;;;;;;8.53;5.40;;;14.60;99.90;;;;;;4994464;28;20567;-85
2022/10/07 04:43:44;;;;;;;9.33;5.20;;;14.70;99.90;;;;;;4995724;28;20516;-86
2022/10/07 04:46:12;;;;;;;8.00;5.50;;;14.60;99.90;;;;;;5002032;28;20949;-86
2022/10/07 04:48:42;;;;;;;9.47;5.47;;;14.70;99.90;;;;;;5015615;28;20439;-86
2022/10/07 04:51:10;;;;;;;10.30;5.70;;;14.70;99.90;;;;;;5014695;28;20446;-86
2022/10/07 04:53:38;;;;;;;8.47;4.93;;;14.70;99.90;;;;;;5033742;28;20456;-85
2022/10/07 04:56:05;;;;;;;8.97;5.77;;;14.70;99.90;;;;;;5028942;28;20483;-86
2022/10/07 04:58:32;;;;;;;12.27;5.63;;;14.60;99.90;;;;;;5014367;28;20459;-86
2022/10/07 05:01:01;;;;;;;8.40;5.33;;;14.60;99.90;;;;;;5021536;28;20455;-85
2022/10/07 05:03:29;;;;;;;10.03;5.50;;;14.60;99.90;;;;;;5028419;28;21050;-85
2022/10/07 05:06:01;;;;;;;7.47;4.83;;;14.60;99.90;;;;;;5018559;28;20443;-86
2022/10/07 05:08:28;;;;;;;9.10;5.77;;;14.60;99.90;;;;;;5023041;28;20451;-86
2022/10/07 05:10:56;;;;;;;8.70;5.63;;;14.50;99.90;;;;;;5018331;28;20482;-85
2022/10/07 05:13:25;;;;;;;16.07;6.90;;;14.60;99.90;;;;;;5017760;28;20478;-85
2022/10/07 05:15:53;;;;;;;10.43;5.50;;;14.50;99.90;;;;;;5017484;28;20474;-85
2022/10/07 05:18:22;;;;;;;7.33;5.60;;;14.50;99.90;;;;;;5019557;28;20936;-86
2022/10/07 05:20:50;;;;;;;9.00;5.90;;;14.50;99.90;;;;;;5028359;28;20990;-86
2022/10/07 05:23:19;;;;;;;12.43;6.20;;;14.50;99.90;;;;;;5023406;28;20470;-86
2022/10/07 05:25:46;;;;;;;10.17;5.87;;;14.50;99.90;;;;;;5017332;28;20530;-86
2022/10/07 05:28:15;;;;;;;8.63;5.30;;;14.50;99.90;;;;;;5020572;28;20450;-87
2022/10/07 05:30:42;;;;;;;7.33;5.60;;;14.50;99.90;;;;;;5019528;28;20438;-85
2022/10/07 05:33:09;;;;;;;13.03;6.43;;;14.50;99.90;;;;;;5017939;28;20539;-86
2022/10/07 05:35:37;;;;;;;8.30;5.87;;;14.60;99.90;;;;;;5017594;28;21009;-86
2022/10/07 05:38:04;;;;;;;6.73;5.80;;;14.60;99.90;;;;;;5019580;28;20454;-86
2022/10/07 05:40:31;;;;;;;7.63;6.10;;;14.60;99.90;;;;;;5024625;28;20454;-86
2022/10/07 05:42:58;;;;;;;8.40;5.10;;;14.70;99.90;;;;;;5027337;28;20459;-85
2022/10/07 05:45:25;;;;;;;12.37;5.20;;;14.70;99.90;;;;;;5038945;28;20470;-84
2022/10/07 05:47:51;;;;;;;8.43;5.80;;;14.70;99.90;;;;;;5027283;28;20984;-81
2022/10/07 05:50:18;;;;;;;12.40;4.90;;;14.70;99.90;;;;;;5024218;28;20522;-81
2022/10/07 05:52:48;;;;;;;6.30;5.27;;;14.80;99.90;;;;;;5030114;28;20447;-80
2022/10/07 05:55:16;;;;;;;7.97;5.70;;;14.70;99.90;;;;;;5028989;28;20474;-81
2022/10/07 05:57:42;;;;;;;9.53;5.80;;;14.80;99.90;;;;;;5018852;28;20463;-81
2022/10/07 06:00:13;;;;;;;9.53;5.80;;;14.80;99.90;;;;;;5020513;28;20860;-81
2022/10/07 06:02:39;;;;;;;8.17;5.60;;;14.90;99.90;;;;;;5000194;28;20515;-81
2022/10/07 06:05:07;;;;;;;14.53;7.07;;;14.90;99.90;;;;;;4998108;28;20471;-81
2022/10/07 06:07:34;;;;;;;10.70;5.50;;;15.00;99.90;;;;;;4999406;28;20546;-81
2022/10/07 06:15:31;;;;;;;8.07;7.10;;;15.20;99.90;;;;;;5008655;28;20486;-85
2022/10/07 06:17:57;;;;;;;12.13;7.37;;;15.30;99.90;;;;;;5009207;28;20532;-86
2022/10/07 06:20:24;;;;;;;7.37;6.40;;;15.40;99.90;;;;;;5016746;28;20440;-86
2022/10/07 06:22:53;;;;;;;13.70;6.97;;;15.40;99.90;;;;;;5000758;28;20448;-86
2022/10/07 06:25:22;;;;;;;10.80;6.37;;;15.50;99.90;;;;;;5007921;28;20527;-86
2022/10/07 06:27:48;;;;;;;9.97;6.27;;;15.70;99.90;;;;;;5006102;28;20467;-86
2022/10/07 06:30:16;;;;;;;12.50;7.20;;;15.80;99.90;;;;;;5002620;28;20443;-86
2022/10/07 06:32:43;;;;;;;17.30;6.37;;;15.80;99.90;;;;;;5009629;28;20440;-87
2022/10/07 06:35:10;;;;;;;10.67;6.47;;;15.90;99.90;;;;;;5016844;28;20501;-86
2022/10/07 06:37:39;;;;;;;13.07;7.00;;;16.00;99.90;;;;;;5023795;28;20441;-87
2022/10/07 06:40:11;;;;;;;11.37;6.50;;;16.20;99.90;;;;;;5018302;28;20444;-86
2022/10/07 06:42:39;;;;;;;10.93;6.23;;;16.20;99.90;;;;;;5020491;28;20440;-87
2022/10/07 06:45:08;;;;;;;10.83;7.23;;;16.30;99.90;;;;;;5027997;28;20468;-86
2022/10/07 06:47:42;;;;;;;12.80;7.20;;;16.40;99.90;;;;;;5016374;28;20446;-87
2022/10/07 06:50:09;;;;;;;11.93;8.20;;;16.30;99.90;;;;;;5004592;28;20505;-86
2022/10/07 06:52:35;;;;;;;15.10;7.90;;;16.40;99.90;;;;;;5001463;28;20439;-86
2022/10/07 06:55:02;;;;;;;16.60;8.17;;;16.50;99.90;;;;;;5010251;28;20862;-87
2022/10/07 06:57:29;;;;;;;13.70;9.67;;;16.60;99.90;;;;;;5022325;28;20446;-86
2022/10/07 06:59:59;;;;;;;16.07;10.30;;;16.80;99.90;;;;;;5009441;28;21260;-86
2022/10/07 07:02:28;;;;;;;18.83;11.30;;;16.90;99.90;;;;;;5008518;28;20558;-86
2022/10/07 07:04:55;;;;;;;17.87;10.60;;;17.10;99.90;;;;;;5029247;28;20497;-89
2022/10/07 07:07:23;;;;;;;11.10;9.13;;;17.20;99.90;;;;;;5019826;28;20439;-86
2022/10/07 07:09:50;;;;;;;17.67;9.20;;;17.30;99.90;;;;;;5007370;28;21003;-86
2022/10/07 07:12:17;;;;;;;12.00;8.70;;;17.50;99.90;;;;;;5009376;28;20448;-86
2022/10/07 07:14:44;;;;;;;17.40;8.50;;;17.40;99.90;;;;;;5022427;28;20463;-87
2022/10/07 07:17:13;;;;;;;18.53;9.13;;;17.40;99.90;;;;;;5012249;28;20586;-86
2022/10/07 07:19:39;;;;;;;11.93;7.63;;;17.40;99.90;;;;;;5013975;28;20432;-86
2022/10/07 07:22:27;;;;;;;15.10;8.57;;;17.30;99.90;;;;;;5018377;28;20443;-86
2022/10/07 07:24:54;;;;;;;11.53;7.87;;;17.20;99.90;;;;;;5012645;28;20469;-87
2022/10/07 07:27:21;;;;;;;11.73;8.20;;;17.20;99.90;;;;;;5006006;28;20538;-87
2022/10/07 07:29:51;;;;;;;19.67;9.50;;;17.20;99.90;;;;;;5011025;28;20443;-87
2022/10/07 07:32:19;;;;;;;14.93;9.60;;;17.20;99.90;;;;;;5011345;28;20522;-87
2022/10/07 07:34:45;;;;;;;12.00;8.17;;;17.10;99.90;;;;;;5031624;28;20472;-87
2022/10/07 07:37:12;;;;;;;9.80;7.73;;;17.10;99.90;;;;;;5043848;28;20488;-87
2022/10/07 07:39:39;;;;;;;15.00;8.57;;;17.20;99.90;;;;;;5044457;28;20450;-87
2022/10/07 07:42:06;;;;;;;13.00;7.47;;;17.20;99.90;;;;;;5050765;28;20505;-87
2022/10/07 07:44:35;;;;;;;16.53;9.00;;;17.30;99.90;;;;;;5032698;28;20465;-86
2022/10/07 07:47:02;;;;;;;9.10;7.03;;;17.40;99.90;;;;;;5033266;28;20445;-85
2022/10/07 07:49:32;;;;;;;17.13;7.97;;;17.50;99.90;;;;;;5033855;28;20961;-86
2022/10/07 07:51:59;;;;;;;13.63;7.90;;;17.70;99.90;;;;;;5031962;28;20461;-86
2022/10/07 07:54:27;;;;;;;8.47;7.30;;;17.90;99.90;;;;;;5033565;28;20477;-88
2022/10/07 07:57:08;;;;;;;7.80;7.00;;;18.00;99.90;;;;;;5043121;28;20478;-92
2022/10/07 08:07:37;;;;;;;12.07;7.17;;;18.30;99.90;;;;;;6119880;22;20839;-84
2022/10/07 08:29:37;;;;;;;8.37;6.53;;;21.10;99.90;;;;;;5014027;28;20451;-86
2022/10/07 08:32:41;;;;;;;14.93;7.50;;;21.40;99.90;;;;;;5014330;28;20515;-86
2022/10/07 08:35:08;;;;;;;8.50;6.50;;;20.90;99.90;;;;;;5014264;28;20454;-86
2022/10/07 08:37:35;;;;;;;16.00;6.63;;;20.60;99.90;;;;;;5014419;28;20485;-87
2022/10/07 08:40:02;;;;;;;9.93;6.33;;;20.40;99.90;;;;;;5017890;28;20450;-86
2022/10/07 08:42:34;;;;;;;12.50;5.83;;;20.70;99.90;;;;;;5017809;28;20481;-86
2022/10/07 08:45:01;;;;;;;8.73;6.27;;;20.60;99.90;;;;;;5018050;28;20470;-87
2022/10/07 08:47:46;;;;;;;9.43;5.93;;;20.60;99.90;;;;;;5019901;28;20465;-87
2022/10/07 08:50:40;;;;;;;11.03;5.80;;;20.60;99.90;;;;;;5017724;28;20459;-87
2022/10/07 08:53:23;;;;;;;6.60;4.47;;;20.70;99.90;;;;;;5017685;28;20459;-87
2022/10/07 08:55:54;;;;;;;8.30;5.60;;;20.70;99.90;;;;;;5017328;28;20568;-88
2022/10/07 08:58:49;;;;;;;7.60;5.07;;;20.80;99.90;;;;;;5017437;28;20461;-87
2022/10/07 09:02:01;;;;;;;5.70;4.80;;;21.10;99.90;;;;;;5017174;28;20458;-87
2022/10/07 09:07:53;;;;;;;5.63;4.10;;;22.20;98.00;;;;;;5011718;28;20438;-87
2022/10/07 09:10:52;;;;;;;12.90;4.50;;;22.10;97.70;;;;;;5023636;28;20938;-87
2022/10/07 09:14:03;;;;;;;;;;;;;;;;;;;;;
2022/10/07 09:16:37;;;;;;;5.43;3.80;;;22.90;96.30;;;;;;5009782;28;20475;-87
2022/10/07 09:19:05;;;;;;;6.33;3.90;;;24.80;93.90;;;;;;4999322;28;20433;-87
2022/10/07 09:21:53;;;;;;;8.80;4.73;;;26.30;91.60;;;;;;5005658;28;20446;-88
2022/10/07 09:24:47;;;;;;;9.43;4.07;;;27.10;86.60;;;;;;5004527;28;20514;-86
2022/10/07 09:27:41;;;;;;;5.30;3.80;;;26.30;86.20;;;;;;5036705;28;20495;-86
2022/10/07 09:30:28;;;;;;;10.27;4.70;;;24.60;89.80;;;;;;5002697;28;20542;-85
2022/10/07 09:33:35;;;;;;;4.60;4.07;;;24.20;91.40;;;;;;5030784;28;20463;-85
2022/10/07 09:36:24;;;;;;;7.70;5.03;;;24.00;91.80;;;;;;5019651;28;20471;-86
2022/10/07 09:39:00;;;;;;;5.90;4.60;;;24.20;91.90;;;;;;5025400;28;20833;-86
2022/10/07 09:41:31;;;;;;;8.43;4.57;;;25.10;90.70;;;;;;5038827;28;20479;-86
2022/10/07 09:44:03;;;;;;;4.10;3.43;;;25.10;88.90;;;;;;5057874;28;20982;-86
2022/10/07 09:47:03;;;;;;;5.90;4.80;;;24.50;89.80;;;;;;5056875;28;20478;-87
2022/10/07 09:49:39;;;;;;;5.47;4.07;;;24.50;90.20;;;;;;5056996;28;20446;-87
2022/10/07 09:52:22;;;;;;;6.00;4.73;;;25.80;87.40;;;;;;5056097;28;20448;-86
2022/10/07 09:54:50;;;;;;;6.13;5.53;;;26.70;83.80;;;;;;5056402;28;20471;-87
2022/10/07 09:57:26;;;;;;;7.73;5.87;;;28.30;79.80;;;;;;5056351;28;20465;-87
2022/10/07 10:00:17;;;;;;;5.10;4.70;;;29.50;75.70;;;;;;5056427;28;20451;-86
2022/10/07 10:02:47;;;;;;;5.00;4.43;;;30.00;69.90;;;;;;5055867;28;20452;-87
2022/10/07 10:05:34;;;;;;;5.77;4.87;;;29.90;68.30;;;;;;5039198;28;20532;-87
2022/10/07 10:08:04;;;;;;;6.17;4.63;;;30.10;66.60;;;;;;5026308;28;20485;-87
2022/10/07 10:10:32;;;;;;;4.73;4.23;;;29.50;66.70;;;;;;5027681;28;20444;-87
2022/10/07 10:13:01;;;;;;;5.40;4.80;;;29.30;67.50;;;;;;5028422;28;20485;-88
2022/10/07 10:15:40;;;;;;;6.70;5.57;;;29.80;67.70;;;;;;5026566;28;20445;-88
2022/10/07 10:18:34;;;;;;;8.83;5.40;;;29.80;65.40;;;;;;5021665;28;20476;-87
2022/10/07 10:21:26;;;;;;;5.80;5.30;;;30.00;64.20;;;;;;5022242;28;20440;-87
2022/10/07 10:23:55;;;;;;;9.23;5.70;;;30.40;64.00;;;;;;5024536;28;20474;-87
2022/10/07 10:26:55;;;;;;;8.33;6.80;;;31.80;62.10;;;;;;5004217;28;20543;-87
2022/10/07 10:29:45;;;;;;;5.90;5.33;;;32.40;59.20;;;;;;5006462;28;20895;-87
2022/10/07 10:32:48;;;;;;;7.77;5.60;;;32.10;58.20;;;;;;4998240;28;20722;-87
2022/10/07 10:35:28;;;;;;;7.90;5.83;;;32.20;57.50;;;;;;4996513;28;20476;-87
2022/10/07 10:38:19;;;;;;;8.30;5.40;;;31.70;57.60;;;;;;5000009;28;20508;-86
2022/10/07 10:41:02;;;;;;;5.43;4.97;;;30.80;59.80;;;;;;5010724;28;20448;-87
2022/10/07 10:43:50;;;;;;;7.80;5.80;;;31.10;59.40;;;;;;5043406;28;20479;-87
2022/10/07 10:46:38;;;;;;;6.50;5.40;;;32.30;58.70;;;;;;5047873;28;20450;-87
2022/10/07 10:49:16;;;;;;;8.00;6.00;;;32.20;57.40;;;;;;5058674;28;20466;-88
2022/10/07 10:51:54;;;;;;;6.60;6.00;;;32.00;58.40;;;;;;5049001;28;20442;-87
2022/10/07 10:54:29;;;;;;;6.50;5.90;;;32.20;56.60;;;;;;5008154;28;20480;-88
2022/10/07 10:57:00;;;;;;;8.07;5.43;;;31.60;57.20;;;;;;4999381;28;20821;-87
2022/10/07 10:59:54;;;;;;;6.80;5.57;;;31.60;58.00;;;;;;5023489;28;20498;-87
2022/10/07 11:02:54;;;;;;;6.53;5.63;;;31.50;58.40;;;;;;5009974;28;20446;-87
2022/10/07 11:05:26;;;;;;;9.50;6.17;;;32.00;58.20;;;;;;5001143;28;20829;-88
2022/10/07 11:07:59;;;;;;;7.67;6.37;;;31.90;56.90;;;;;;5032690;28;20506;-87
2022/10/07 11:10:47;;;;;;;6.43;5.30;;;31.60;56.80;;;;;;5013370;28;20449;-88
2022/10/07 11:13:38;;;;;;;10.87;7.00;;;31.50;57.70;;;;;;5036318;28;20491;-88
2022/10/07 11:19:21;;;;;;;5.47;4.97;;;31.90;57.20;;;;;;5035891;28;20452;-88
2022/10/07 11:22:17;;;;;;;8.33;6.23;;;31.60;56.30;;;;;;5035041;28;20431;-87
2022/10/07 11:24:55;;;;;;;8.13;5.70;;;31.60;58.00;;;;;;5053298;28;20492;-88
2022/10/07 11:27:27;;;;;;;6.90;6.20;;;32.20;56.20;;;;;;5023722;28;20528;-88
2022/10/07 11:30:00;;;;;;;8.30;6.43;;;32.30;56.20;;;;;;5011197;28;20440;-88
2022/10/07 11:32:34;;;;;;;6.57;5.80;;;32.20;56.20;;;;;;5003888;28;20510;-88
2022/10/07 11:35:13;;;;;;;7.57;6.77;;;32.10;56.40;;;;;;5009453;28;20568;-88
2022/10/07 11:37:47;;;;;;;8.80;8.00;;;31.60;56.80;;;;;;4997908;28;20438;-88
2022/10/07 11:40:15;;;;;;;7.63;6.83;;;31.90;56.40;;;;;;4994662;28;20461;-87
2022/10/07 11:42:48;;;;;;;8.80;7.33;;;31.50;57.30;;;;;;5036254;28;20484;-88
2022/10/07 11:45:21;;;;;;;7.77;6.93;;;32.10;56.60;;;;;;5041564;28;20463;-88
2022/10/07 11:47:53;;;;;;;10.43;7.40;;;31.50;55.80;;;;;;5037549;28;20484;-88
2022/10/07 11:50:23;;;;;;;7.33;6.63;;;31.50;56.10;;;;;;5034312;28;20948;-87
2022/10/07 11:52:53;;;;;;;7.93;7.20;;;31.00;57.40;;;;;;5034725;28;20442;-87
2022/10/07 11:55:25;;;;;;;7.00;6.40;;;30.50;58.30;;;;;;5033818;28;20939;-87
2022/10/07 11:57:56;;;;;;;7.70;5.80;;;31.50;58.30;;;;;;5037217;28;20454;-88
2022/10/07 12:00:29;;;;;;;6.30;5.70;;;31.60;56.40;;;;;;5036872;28;20501;-87
2022/10/07 12:03:46;;;;;;;7.13;6.53;;;31.90;57.10;;;;;;5034184;28;20488;-87
2022/10/07 12:06:13;;;;;;;6.63;6.03;;;32.50;55.10;;;;;;5033834;28;20504;-87
2022/10/07 12:08:46;;;;;;;6.30;5.70;;;31.70;55.80;;;;;;5034297;28;20537;-88
2022/10/07 12:11:45;;;;;;;6.30;5.30;;;31.40;56.40;;;;;;5033865;28;20894;-88
2022/10/07 12:14:43;;;;;;;7.10;6.40;;;31.20;58.40;;;;;;5033076;28;20482;-88
2022/10/07 12:17:27;;;;;;;7.73;6.17;;;32.20;55.30;;;;;;5003388;28;20998;-88
2022/10/07 12:20:36;;;;;;;7.30;6.33;;;30.90;57.10;;;;;;5036850;28;20855;-87
2022/10/07 12:23:48;;;;;;;6.70;5.80;;;31.20;58.00;;;;;;5035962;28;20459;-86
2022/10/07 12:26:52;;;;;;;6.20;5.70;;;30.90;58.40;;;;;;5033442;28;20819;-87
2022/10/07 12:30:00;;;;;;;6.97;6.00;;;30.50;57.70;;;;;;5030329;28;20448;-87
2022/10/07 12:33:01;;;;;;;6.20;5.70;;;29.20;61.50;;;;;;5033228;28;20456;-87
2022/10/07 12:35:52;;;;;;;6.60;5.67;;;27.90;63.20;;;;;;5002175;28;20506;-87
2022/10/07 12:41:24;;;;;;;6.50;5.90;;;27.70;65.40;;;;;;5034928;28;20993;-87
2022/10/07 12:44:05;;;;;;;7.77;6.50;;;26.40;68.90;;;;;;5033914;28;20463;-87
2022/10/07 12:46:49;;;;;;;7.47;6.77;;;25.90;71.30;;;;;;5033686;28;20463;-87
2022/10/07 12:55:59;;;;;;;6.57;5.80;;;25.70;74.10;;;;;;5029935;28;20447;-87
2022/10/07 13:02:26;;;;;;;7.37;6.60;;;25.20;75.20;;;;;;5034219;28;20435;-86
2022/10/07 13:16:34;;;;;;;;;;;;;;;;;;;;;
2022/10/07 13:28:43;;;;;;;5.97;5.47;;;25.00;77.00;;;;;;5031844;28;20496;-87
2022/10/07 13:31:39;;;;;;;8.43;6.57;;;25.40;76.60;;;;;;5036793;28;20454;-87
2022/10/07 13:34:17;;;;;;;7.43;6.43;;;24.70;76.60;;;;;;4998264;28;20459;-88
2022/10/07 13:36:44;;;;;;;6.73;6.13;;;24.30;77.90;;;;;;5002516;28;20780;-88
2022/10/07 13:39:12;;;;;;;8.40;5.93;;;23.80;80.30;;;;;;5014257;28;20441;-88
2022/10/07 13:41:43;;;;;;;8.43;6.50;;;23.60;81.50;;;;;;5014923;28;20446;-88
2022/10/07 13:44:13;;;;;;;7.40;6.70;;;23.30;82.90;;;;;;5018165;28;20477;-88
2022/10/07 13:46:59;;;;;;;9.13;7.17;;;23.10;83.40;;;;;;5018049;28;20488;-87
2022/10/07 13:49:33;;;;;;;6.70;6.00;;;23.00;84.90;;;;;;5017416;28;20429;-86
2022/10/07 13:52:04;;;;;;;7.20;6.20;;;23.00;84.20;;;;;;5030928;28;20450;-86
2022/10/07 13:54:33;;;;;;;6.20;5.60;;;22.90;84.50;;;;;;5037731;28;21057;-85
2022/10/07 13:57:01;;;;;;;8.33;5.93;;;22.90;85.40;;;;;;5038338;28;20450;-86
2022/10/07 13:59:35;;;;;;;7.07;5.53;;;23.10;85.00;;;;;;5037300;28;20541;-87
2022/10/07 14:02:03;;;;;;;6.03;5.53;;;23.50;84.50;;;;;;5037960;28;20458;-86
2022/10/07 14:04:49;;;;;;;6.80;6.20;;;24.10;83.60;;;;;;5040506;28;20458;-86
2022/10/07 14:07:18;;;;;;;7.57;6.27;;;24.00;82.10;;;;;;5037470;28;20486;-86
2022/10/07 14:09:47;;;;;;;7.80;6.40;;;23.50;83.20;;;;;;5023143;28;20447;-86
2022/10/07 14:12:18;;;;;;;6.80;6.10;;;23.20;84.70;;;;;;5017703;28;20454;-85
2022/10/07 14:14:47;;;;;;;6.97;6.27;;;23.00;85.80;;;;;;5018922;28;20470;-86
2022/10/07 14:17:27;;;;;;;9.87;6.50;;;22.90;86.80;;;;;;5006524;28;20444;-85
2022/10/07 14:20:00;;;;;;;7.03;6.33;;;22.80;88.20;;;;;;5000985;28;20482;-86
2022/10/07 14:22:31;;;;;;;6.50;5.83;;;22.90;87.20;;;;;;5017426;28;20807;-88
2022/10/07 14:25:06;;;;;;;9.10;5.93;;;22.90;87.10;;;;;;5016504;28;20486;-86
2022/10/07 14:27:50;;;;;;;6.57;5.70;;;23.00;88.10;;;;;;5017145;28;20493;-87
2022/10/07 14:36:14;;;;;;;6.27;5.77;;;23.30;86.70;;;;;;5051377;28;20448;-87
2022/10/07 14:38:46;;;;;;;8.77;6.13;;;23.40;87.40;;;;;;5040311;28;20447;-86